Time;durP1;ratioP1;P1;durP2;ratioP2;P2;SDS_P1;SDS_P2;PMS_P1;PMS_P2;Temp;Humidity;BMP_temperature;BMP_pressure;BME280_temperature;BME280_humidity;BME280_pressure;Samples;Min_cycle;Max_cycle;Signal;HPM_P1;HPM_P2
2022/04/04 00:02:11;;;;;;;22.88;14.15;;;;;;;;;;5035070;28;20108;-60
2022/04/04 00:04:37;;;;;;;21.08;12.07;;;;;;;;;;5035108;28;20102;-61
2022/04/04 00:07:03;;;;;;;19.88;11.93;;;;;;;;;;5034994;28;20083;-60
2022/04/04 00:09:30;;;;;;;26.13;14.52;;;;;;;;;;5035021;28;20018;-60
2022/04/04 00:11:56;;;;;;;25.10;14.13;;;;;;;;;;5035093;28;20028;-58
2022/04/04 00:14:22;;;;;;;24.45;15.85;;;;;;;;;;5035173;28;20018;-60
2022/04/04 00:16:49;;;;;;;27.15;15.48;;;;;;;;;;5034786;28;20072;-61
2022/04/04 00:19:15;;;;;;;21.70;14.63;;;;;;;;;;5035047;28;20025;-60
2022/04/04 00:21:41;;;;;;;22.95;14.88;;;;;;;;;;5035070;28;20113;-60
2022/04/04 00:24:08;;;;;;;24.08;14.00;;;;;;;;;;5033452;28;20113;-61
2022/04/04 00:26:34;;;;;;;23.08;15.07;;;;;;;;;;5035194;28;20116;-61
2022/04/04 00:29:01;;;;;;;23.63;13.70;;;;;;;;;;5034315;28;20060;-60
2022/04/04 00:31:27;;;;;;;32.30;16.20;;;;;;;;;;5034659;28;20554;-60
2022/04/04 00:33:53;;;;;;;29.08;15.45;;;;;;;;;;5035060;28;20071;-61
2022/04/04 00:36:20;;;;;;;25.02;15.10;;;;;;;;;;5034225;28;20124;-60
2022/04/04 00:38:46;;;;;;;25.88;13.13;;;;;;;;;;5034999;28;20467;-62
2022/04/04 00:41:17;;;;;;;24.80;15.82;;;;;;;;;;5034317;28;20373;-60
2022/04/04 00:43:44;;;;;;;26.00;16.27;;;;;;;;;;5034398;28;20045;-61
2022/04/04 00:46:10;;;;;;;28.15;17.45;;;;;;;;;;5034413;28;20108;-61
2022/04/04 00:48:36;;;;;;;22.83;16.27;;;;;;;;;;5034425;28;20022;-61
2022/04/04 00:51:02;;;;;;;25.20;16.38;;;;;;;;;;5034565;28;20116;-61
2022/04/04 00:53:29;;;;;;;25.85;17.27;;;;;;;;;;5034100;28;20474;-60
2022/04/04 00:55:55;;;;;;;26.90;16.90;;;;;;;;;;5033837;28;20120;-60
2022/04/04 00:58:22;;;;;;;25.23;16.20;;;;;;;;;;5033686;28;20104;-62
2022/04/04 01:00:49;;;;;;;23.98;16.35;;;;;;;;;;5033956;28;20040;-59
2022/04/04 01:03:15;;;;;;;28.92;16.42;;;;;;;;;;5034282;28;20378;-61
2022/04/04 01:05:45;;;;;;;24.45;16.27;;;;;;;;;;5033571;28;20053;-60
2022/04/04 01:08:12;;;;;;;29.70;17.08;;;;;;;;;;5034087;28;20478;-62
2022/04/04 01:10:39;;;;;;;27.23;16.77;;;;;;;;;;5033752;28;20099;-61
2022/04/04 01:13:05;;;;;;;26.58;16.92;;;;;;;;;;5034145;28;20105;-60
2022/04/04 01:15:32;;;;;;;25.80;16.45;;;;;;;;;;5033448;28;20375;-61
2022/04/04 01:18:00;;;;;;;25.27;14.95;;;;;;;;;;5033796;28;20025;-60
2022/04/04 01:20:26;;;;;;;23.95;13.63;;;;;;;;;;5033989;28;20021;-60
2022/04/04 01:22:52;;;;;;;24.40;14.52;;;;;;;;;;5033702;28;20446;-60
2022/04/04 01:25:26;;;;;;;22.25;13.98;;;;;;;;;;5033970;28;20052;-61
2022/04/04 01:27:52;;;;;;;21.40;14.38;;;;;;;;;;5033967;28;20414;-61
2022/04/04 01:30:18;;;;;;;25.27;15.82;;;;;;;;;;5033864;28;20036;-60
2022/04/04 01:32:45;;;;;;;21.40;14.27;;;;;;;;;;5033845;28;20021;-59
2022/04/04 01:35:11;;;;;;;20.80;13.45;;;;;;;;;;5033489;28;20556;-60
2022/04/04 01:37:38;;;;;;;22.17;14.15;;;;;;;;;;5033981;28;20087;-61
2022/04/04 01:40:06;;;;;;;19.70;13.68;;;;;;;;;;5033455;28;20053;-59
2022/04/04 01:42:33;;;;;;;23.98;15.45;;;;;;;;;;5033668;28;20049;-60
2022/04/04 01:44:59;;;;;;;27.92;15.80;;;;;;;;;;5033723;28;20402;-61
2022/04/04 01:47:25;;;;;;;26.40;16.95;;;;;;;;;;5033422;28;20028;-60
2022/04/04 01:49:51;;;;;;;25.75;17.08;;;;;;;;;;5033279;28;20034;-61
2022/04/04 01:52:17;;;;;;;25.60;17.08;;;;;;;;;;5033648;28;20056;-61
2022/04/04 01:54:43;;;;;;;24.83;16.52;;;;;;;;;;5033391;28;20057;-61
2022/04/04 01:57:10;;;;;;;31.38;18.83;;;;;;;;;;5033822;28;20112;-62
2022/04/04 01:59:36;;;;;;;29.88;17.98;;;;;;;;;;5033071;28;20025;-61
2022/04/04 02:02:02;;;;;;;25.98;16.13;;;;;;;;;;5032887;28;20013;-60
2022/04/04 02:04:28;;;;;;;27.08;17.73;;;;;;;;;;5035394;28;20033;-60
2022/04/04 02:06:55;;;;;;;25.48;16.85;;;;;;;;;;5036106;28;20022;-62
2022/04/04 02:09:21;;;;;;;25.95;16.65;;;;;;;;;;5035810;28;20119;-59
2022/04/04 02:11:48;;;;;;;26.35;15.88;;;;;;;;;;5036786;28;20029;-60
2022/04/04 02:14:15;;;;;;;27.95;17.63;;;;;;;;;;5037115;28;20025;-61
2022/04/04 02:16:41;;;;;;;30.83;18.33;;;;;;;;;;5037640;28;20544;-60
2022/04/04 02:19:08;;;;;;;30.67;17.83;;;;;;;;;;5037174;28;20021;-61
2022/04/04 02:21:34;;;;;;;28.98;18.20;;;;;;;;;;5036887;28;20028;-60
2022/04/04 02:24:01;;;;;;;27.65;17.83;;;;;;;;;;5037932;28;20022;-61
2022/04/04 02:26:27;;;;;;;29.42;18.70;;;;;;;;;;5036501;28;20386;-61
2022/04/04 02:28:53;;;;;;;28.10;17.15;;;;;;;;;;5037097;28;20029;-60
2022/04/04 02:31:19;;;;;;;29.10;17.50;;;;;;;;;;5037226;28;20018;-60
2022/04/04 02:33:45;;;;;;;26.80;17.45;;;;;;;;;;5036805;28;20026;-61
2022/04/04 02:36:12;;;;;;;25.23;16.55;;;;;;;;;;5036639;28;20068;-60
2022/04/04 02:38:38;;;;;;;23.33;16.30;;;;;;;;;;5037025;28;20013;-60
2022/04/04 02:41:05;;;;;;;24.13;16.10;;;;;;;;;;5036823;28;20433;-58
2022/04/04 02:43:31;;;;;;;28.38;17.42;;;;;;;;;;5036552;28;20080;-60
2022/04/04 02:45:57;;;;;;;24.10;16.58;;;;;;;;;;5036938;28;20108;-61
2022/04/04 02:48:24;;;;;;;26.52;17.30;;;;;;;;;;5037211;28;20025;-60
2022/04/04 02:50:52;;;;;;;23.05;15.95;;;;;;;;;;5036306;28;20105;-61
2022/04/04 02:53:18;;;;;;;28.05;17.27;;;;;;;;;;5036742;28;20053;-61
2022/04/04 02:58:29;;;;;;;26.50;16.70;;;;;;;;;;5036910;28;20032;-61
2022/04/04 03:00:55;;;;;;;26.27;16.63;;;;;;;;;;5036624;28;20100;-61
2022/04/04 03:03:21;;;;;;;27.27;16.98;;;;;;;;;;5036447;28;20037;-62
2022/04/04 03:05:48;;;;;;;25.10;17.05;;;;;;;;;;5036535;28;20108;-61
2022/04/04 03:08:14;;;;;;;29.05;18.05;;;;;;;;;;5036261;28;20440;-60
2022/04/04 03:10:40;;;;;;;26.45;17.95;;;;;;;;;;5036245;28;20097;-60
2022/04/04 03:13:06;;;;;;;25.42;17.33;;;;;;;;;;5036113;28;20485;-60
2022/04/04 03:15:37;;;;;;;26.73;17.58;;;;;;;;;;5034539;28;20398;-61
2022/04/04 03:18:04;;;;;;;27.02;17.08;;;;;;;;;;5035907;28;20033;-62
2022/04/04 03:20:31;;;;;;;21.88;15.73;;;;;;;;;;5036332;28;20053;-62
2022/04/04 03:22:57;;;;;;;25.17;17.75;;;;;;;;;;5036176;28;20028;-61
2022/04/04 03:25:24;;;;;;;26.70;15.77;;;;;;;;;;5035626;28;20028;-61
2022/04/04 03:27:51;;;;;;;23.00;15.57;;;;;;;;;;5035262;28;20443;-61
2022/04/04 03:30:19;;;;;;;25.35;16.73;;;;;;;;;;5034343;28;20137;-62
2022/04/04 03:32:46;;;;;;;27.52;17.23;;;;;;;;;;5035228;28;20051;-61
2022/04/04 03:35:15;;;;;;;28.10;16.73;;;;;;;;;;5035348;28;20115;-60
2022/04/04 03:37:41;;;;;;;26.73;17.13;;;;;;;;;;5035210;28;20386;-60
2022/04/04 03:40:09;;;;;;;28.75;18.38;;;;;;;;;;5035670;28;20033;-61
2022/04/04 03:42:37;;;;;;;31.65;18.65;;;;;;;;;;5035588;28;20068;-61
2022/04/04 03:45:04;;;;;;;40.72;20.88;;;;;;;;;;5034492;28;20489;-61
2022/04/04 03:47:31;;;;;;;35.40;21.15;;;;;;;;;;5035666;28;20036;-60
2022/04/04 03:49:59;;;;;;;44.42;24.77;;;;;;;;;;5036023;28;20104;-60
2022/04/04 03:52:25;;;;;;;41.20;25.08;;;;;;;;;;5035092;28;20423;-60
2022/04/04 03:54:52;;;;;;;32.55;20.83;;;;;;;;;;5035193;28;20455;-60
2022/04/04 03:57:18;;;;;;;28.67;18.17;;;;;;;;;;5035442;28;20025;-59
2022/04/04 03:59:44;;;;;;;32.85;20.45;;;;;;;;;;5033927;28;20108;-60
2022/04/04 04:02:11;;;;;;;30.08;19.27;;;;;;;;;;5037186;28;20036;-62
2022/04/04 04:04:41;;;;;;;32.55;19.88;;;;;;;;;;5035579;28;20386;-62
2022/04/04 04:07:10;;;;;;;30.13;19.58;;;;;;;;;;5035062;28;20017;-64
2022/04/04 04:09:37;;;;;;;32.30;18.65;;;;;;;;;;5035764;28;20099;-60
2022/04/04 04:12:04;;;;;;;29.90;17.65;;;;;;;;;;5035173;28;20100;-60
2022/04/04 04:14:30;;;;;;;28.40;18.15;;;;;;;;;;5033855;28;20467;-62
2022/04/04 04:16:56;;;;;;;27.88;16.52;;;;;;;;;;5035062;28;20080;-61
2022/04/04 04:22:07;;;;;;;26.35;16.80;;;;;;;;;;5035114;28;20044;-62
2022/04/04 04:24:33;;;;;;;27.65;17.75;;;;;;;;;;5034591;28;20600;-61
2022/04/04 04:26:59;;;;;;;27.02;17.15;;;;;;;;;;5034573;28;20021;-60
2022/04/04 04:29:25;;;;;;;25.65;18.15;;;;;;;;;;5034658;28;20103;-59
2022/04/04 04:31:52;;;;;;;26.13;17.30;;;;;;;;;;5034948;28;20105;-61
2022/04/04 04:34:18;;;;;;;26.15;18.55;;;;;;;;;;5034613;28;20017;-60
2022/04/04 04:36:44;;;;;;;30.25;18.42;;;;;;;;;;5034520;28;20116;-61
2022/04/04 04:39:10;;;;;;;27.17;19.08;;;;;;;;;;5034912;28;20121;-61
2022/04/04 04:41:36;;;;;;;28.55;19.13;;;;;;;;;;5034348;28;20124;-60
2022/04/04 04:44:05;;;;;;;28.13;18.23;;;;;;;;;;5049296;28;20116;-61
2022/04/04 04:46:31;;;;;;;27.77;17.45;;;;;;;;;;5052548;28;20033;-63
2022/04/04 04:48:58;;;;;;;25.38;16.67;;;;;;;;;;5053171;28;20032;-61
2022/04/04 04:51:24;;;;;;;26.23;17.77;;;;;;;;;;5054385;28;20545;-61
2022/04/04 04:53:50;;;;;;;32.40;18.95;;;;;;;;;;5054176;28;20052;-61
2022/04/04 04:56:16;;;;;;;25.65;18.13;;;;;;;;;;5053649;28;20430;-61
2022/04/04 04:58:43;;;;;;;33.45;20.20;;;;;;;;;;5054324;28;20377;-60
2022/04/04 05:01:09;;;;;;;32.65;20.65;;;;;;;;;;5054039;28;20100;-61
2022/04/04 05:03:35;;;;;;;35.65;20.10;;;;;;;;;;5052982;28;20108;-59
2022/04/04 05:06:02;;;;;;;34.90;20.13;;;;;;;;;;5053425;28;20029;-59
2022/04/04 05:08:30;;;;;;;30.00;19.75;;;;;;;;;;5053801;28;20036;-60
2022/04/04 05:10:57;;;;;;;29.98;20.65;;;;;;;;;;5052900;28;20021;-62
2022/04/04 05:13:23;;;;;;;35.80;20.63;;;;;;;;;;5053141;28;20417;-60
2022/04/04 05:15:49;;;;;;;36.47;21.92;;;;;;;;;;5049977;28;20056;-58
2022/04/04 05:18:16;;;;;;;41.65;23.13;;;;;;;;;;5036451;28;20470;-60
2022/04/04 05:20:42;;;;;;;41.78;22.60;;;;;;;;;;5044248;28;20108;-60
2022/04/04 05:23:08;;;;;;;28.52;18.60;;;;;;;;;;5041501;28;20105;-61
2022/04/04 05:25:34;;;;;;;31.23;19.25;;;;;;;;;;5033936;28;20105;-60
2022/04/04 05:28:00;;;;;;;36.33;20.15;;;;;;;;;;5034003;28;20472;-60
2022/04/04 05:30:26;;;;;;;33.88;20.23;;;;;;;;;;5033303;28;20466;-59
2022/04/04 05:32:54;;;;;;;31.10;17.55;;;;;;;;;;5033966;28;20143;-60
2022/04/04 05:35:20;;;;;;;27.45;17.55;;;;;;;;;;5033769;28;20025;-61
2022/04/04 05:37:47;;;;;;;23.00;15.70;;;;;;;;;;5033105;28;20029;-60
2022/04/04 05:40:14;;;;;;;27.17;15.63;;;;;;;;;;5032934;28;20025;-61
2022/04/04 05:42:40;;;;;;;25.60;15.93;;;;;;;;;;5033633;28;20244;-59
2022/04/04 05:45:09;;;;;;;55.55;29.50;;;;;;;;;;5033374;28;20087;-60
2022/04/04 05:47:35;;;;;;;83.50;39.03;;;;;;;;;;5033406;28;20062;-61
2022/04/04 05:50:01;;;;;;;80.25;37.63;;;;;;;;;;5033392;28;20021;-60
2022/04/04 05:52:27;;;;;;;84.93;40.78;;;;;;;;;;5032450;28;20417;-60
2022/04/04 05:54:54;;;;;;;50.88;24.98;;;;;;;;;;5030744;28;20026;-60
2022/04/04 05:57:24;;;;;;;28.00;17.38;;;;;;;;;;5032271;28;20485;-61
2022/04/04 05:59:50;;;;;;;26.13;16.60;;;;;;;;;;5032834;28;20036;-60
2022/04/04 06:02:16;;;;;;;23.45;16.35;;;;;;;;;;5033633;28;20057;-60
2022/04/04 06:04:43;;;;;;;27.15;17.23;;;;;;;;;;5033233;28;20033;-61
2022/04/04 06:07:09;;;;;;;30.65;20.20;;;;;;;;;;5033609;28;20104;-61
2022/04/04 06:09:35;;;;;;;32.33;20.95;;;;;;;;;;5033241;28;20028;-61
2022/04/04 06:12:01;;;;;;;32.58;20.13;;;;;;;;;;5033215;28;20116;-61
2022/04/04 06:14:27;;;;;;;35.78;22.17;;;;;;;;;;5033613;28;20072;-62
2022/04/04 06:16:54;;;;;;;32.33;21.25;;;;;;;;;;5033400;28;20565;-62
2022/04/04 06:19:20;;;;;;;33.03;21.17;;;;;;;;;;5032861;28;20033;-61
2022/04/04 06:21:46;;;;;;;40.00;21.25;;;;;;;;;;5033435;28;20104;-60
2022/04/04 06:24:12;;;;;;;34.22;19.45;;;;;;;;;;5033921;28;20100;-61
2022/04/04 06:26:39;;;;;;;29.85;19.48;;;;;;;;;;5033025;28;20025;-62
2022/04/04 06:29:09;;;;;;;28.45;18.98;;;;;;;;;;5034137;28;20021;-61
2022/04/04 06:31:36;;;;;;;32.40;18.63;;;;;;;;;;5033029;28;20076;-61
2022/04/04 06:34:07;;;;;;;26.92;19.23;;;;;;;;;;5032963;28;20029;-61
2022/04/04 06:36:33;;;;;;;30.40;20.77;;;;;;;;;;5033202;28;20032;-62
2022/04/04 06:39:00;;;;;;;27.08;18.73;;;;;;;;;;5032916;28;20503;-60
2022/04/04 06:41:26;;;;;;;26.35;17.83;;;;;;;;;;5032633;28;20109;-60
2022/04/04 06:43:52;;;;;;;28.20;17.70;;;;;;;;;;5033187;28;20045;-60
2022/04/04 06:46:19;;;;;;;28.17;18.58;;;;;;;;;;5033140;28;20112;-61
2022/04/04 06:48:45;;;;;;;28.25;18.38;;;;;;;;;;5032503;28;20536;-62
2022/04/04 06:51:12;;;;;;;27.95;18.63;;;;;;;;;;5036088;28;20088;-61
2022/04/04 06:53:38;;;;;;;29.20;19.02;;;;;;;;;;5036206;28;20045;-60
2022/04/04 06:56:05;;;;;;;28.70;19.30;;;;;;;;;;5036616;28;20033;-61
2022/04/04 06:58:31;;;;;;;31.02;20.90;;;;;;;;;;5036940;28;20079;-61
2022/04/04 07:00:57;;;;;;;32.30;20.38;;;;;;;;;;5036122;28;20025;-62
2022/04/04 07:03:24;;;;;;;27.95;17.52;;;;;;;;;;5036841;28;20405;-61
2022/04/04 07:05:50;;;;;;;30.58;20.13;;;;;;;;;;5036787;28;20033;-62
2022/04/04 07:08:17;;;;;;;31.02;18.95;;;;;;;;;;5036195;28;20112;-62
2022/04/04 07:10:43;;;;;;;24.08;16.65;;;;;;;;;;5036530;28;20032;-62
2022/04/04 07:13:09;;;;;;;25.50;16.08;;;;;;;;;;5036451;28;20163;-59
2022/04/04 07:15:35;;;;;;;22.55;14.43;;;;;;;;;;5035570;28;20113;-62
2022/04/04 07:18:02;;;;;;;21.35;15.40;;;;;;;;;;5036884;28;20421;-59
2022/04/04 07:20:28;;;;;;;31.52;17.90;;;;;;;;;;5036212;28;20025;-62
2022/04/04 07:22:55;;;;;;;23.85;17.30;;;;;;;;;;5035940;28;20359;-61
2022/04/04 07:25:22;;;;;;;25.42;17.65;;;;;;;;;;5035873;28;20053;-61
2022/04/04 07:27:49;;;;;;;25.48;18.10;;;;;;;;;;5036239;28;20030;-62
2022/04/04 07:30:17;;;;;;;33.58;19.45;;;;;;;;;;5035926;28;20033;-59
2022/04/04 07:32:44;;;;;;;34.13;21.13;;;;;;;;;;5035725;28;20474;-62
2022/04/04 07:35:11;;;;;;;32.40;20.85;;;;;;;;;;5036012;28;20521;-61
2022/04/04 07:37:38;;;;;;;31.58;18.75;;;;;;;;;;5035666;28;20475;-61
2022/04/04 07:40:05;;;;;;;31.20;19.08;;;;;;;;;;5035974;28;20072;-61
2022/04/04 07:42:31;;;;;;;28.27;18.08;;;;;;;;;;5035346;28;20513;-62
2022/04/04 07:44:57;;;;;;;24.33;17.00;;;;;;;;;;5035501;28;20032;-60
2022/04/04 07:47:24;;;;;;;25.85;18.42;;;;;;;;;;5035516;28;20101;-62
2022/04/04 07:49:50;;;;;;;24.05;16.95;;;;;;;;;;5035756;28;20131;-61
2022/04/04 07:52:16;;;;;;;29.67;17.23;;;;;;;;;;5036002;28;20163;-60
2022/04/04 07:54:43;;;;;;;26.92;15.13;;;;;;;;;;5035930;28;20462;-60
2022/04/04 07:57:09;;;;;;;20.58;12.50;;;;;;;;;;5035190;28;20033;-61
2022/04/04 07:59:36;;;;;;;11.30;8.15;;;;;;;;;;5035582;28;20040;-62
2022/04/04 08:02:02;;;;;;;17.05;11.60;;;;;;;;;;5035358;28;20018;-62
2022/04/04 08:04:29;;;;;;;20.27;12.60;;;;;;;;;;5035211;28;20109;-61
2022/04/04 08:06:55;;;;;;;19.38;11.02;;;;;;;;;;5035725;28;20422;-58
2022/04/04 08:09:21;;;;;;;15.82;8.65;;;;;;;;;;5035384;28;20021;-59
2022/04/04 08:11:47;;;;;;;20.45;10.13;;;;;;;;;;5035096;28;20529;-62
2022/04/04 08:14:13;;;;;;;19.10;11.77;;;;;;;;;;5034877;28;20055;-63
2022/04/04 08:16:40;;;;;;;15.02;10.35;;;;;;;;;;5034730;28;20053;-61
2022/04/04 08:19:06;;;;;;;12.18;7.25;;;;;;;;;;5034903;28;20029;-61
2022/04/04 08:21:32;;;;;;;18.00;10.30;;;;;;;;;;5034805;28;20061;-60
2022/04/04 08:23:58;;;;;;;12.50;8.60;;;;;;;;;;5034805;28;20103;-61
2022/04/04 08:26:24;;;;;;;12.60;9.57;;;;;;;;;;5034620;28;20025;-60
2022/04/04 08:28:51;;;;;;;14.80;8.52;;;;;;;;;;5035274;28;20021;-61
2022/04/04 08:31:17;;;;;;;13.50;7.65;;;;;;;;;;5034722;28;20013;-62
2022/04/04 08:33:43;;;;;;;14.00;8.57;;;;;;;;;;5034341;28;20025;-60
2022/04/04 08:36:10;;;;;;;15.10;8.52;;;;;;;;;;5034563;28;20555;-60
2022/04/04 08:38:38;;;;;;;13.10;8.60;;;;;;;;;;5034545;28;20112;-62
2022/04/04 08:41:05;;;;;;;14.75;8.90;;;;;;;;;;5034750;28;20025;-60
2022/04/04 08:43:35;;;;;;;15.48;9.07;;;;;;;;;;5034727;28;20033;-61
2022/04/04 08:46:02;;;;;;;15.50;9.27;;;;;;;;;;5034445;28;20428;-61
2022/04/04 08:48:30;;;;;;;15.23;9.52;;;;;;;;;;5034634;28;20053;-63
2022/04/04 08:50:57;;;;;;;19.77;11.02;;;;;;;;;;5035440;28;20045;-61
2022/04/04 08:53:23;;;;;;;17.25;10.23;;;;;;;;;;5034294;28;20108;-61
2022/04/04 08:55:50;;;;;;;11.73;8.75;;;;;;;;;;5034107;28;20026;-62
2022/04/04 08:58:16;;;;;;;14.02;7.50;;;;;;;;;;5034072;28;20108;-61
2022/04/04 09:00:43;;;;;;;11.70;6.45;;;;;;;;;;5034369;28;20101;-60
2022/04/04 09:03:09;;;;;;;9.70;4.97;;;;;;;;;;5033985;28;20104;-57
2022/04/04 09:05:49;;;;;;;8.10;4.43;;;;;;;;;;5034245;28;20030;-62
2022/04/04 09:08:15;;;;;;;13.07;6.82;;;;;;;;;;5033907;28;20056;-61
2022/04/04 09:10:43;;;;;;;10.90;7.90;;;;;;;;;;5034594;28;20463;-61
2022/04/04 09:13:12;;;;;;;10.30;7.82;;;;;;;;;;5032813;28;20382;-61
2022/04/04 09:15:50;;;;;;;24.05;15.93;;;;;;;;;;5033265;28;20036;-62
2022/04/04 09:18:16;;;;;;;21.25;13.52;;;;;;;;;;5034358;28;20030;-61
2022/04/04 09:20:49;;;;;;;17.15;12.18;;;;;;;;;;5034055;28;20459;-61
2022/04/04 09:23:16;;;;;;;20.80;13.90;;;;;;;;;;5033955;28;20096;-62
2022/04/04 09:25:42;;;;;;;21.40;15.45;;;;;;;;;;5034272;28;20022;-61
2022/04/04 09:28:15;;;;;;;16.40;9.82;;;;;;;;;;5034035;28;20440;-61
2022/04/04 09:30:42;;;;;;;16.33;10.07;;;;;;;;;;5033922;28;20025;-61
2022/04/04 09:33:12;;;;;;;12.40;8.30;;;;;;;;;;5033582;28;20029;-60
2022/04/04 09:35:47;;;;;;;13.80;10.45;;;;;;;;;;5033756;28;20098;-59
2022/04/04 09:38:14;;;;;;;19.10;10.68;;;;;;;;;;5033423;28;20025;-60
2022/04/04 09:40:40;;;;;;;16.52;9.85;;;;;;;;;;5034092;28;20459;-62
2022/04/04 09:43:07;;;;;;;14.13;8.45;;;;;;;;;;5033480;28;20108;-62
2022/04/04 09:45:33;;;;;;;12.50;7.78;;;;;;;;;;5033733;28;20104;-60
2022/04/04 09:48:09;;;;;;;13.38;8.50;;;;;;;;;;5033802;28;20381;-62
2022/04/04 09:50:38;;;;;;;15.50;8.90;;;;;;;;;;5033446;28;20100;-61
2022/04/04 09:53:06;;;;;;;14.68;9.63;;;;;;;;;;5033305;28;20017;-60
2022/04/04 09:55:34;;;;;;;15.88;9.20;;;;;;;;;;5033773;28;20090;-60
2022/04/04 09:58:01;;;;;;;13.90;9.55;;;;;;;;;;5033607;28;20030;-61
2022/04/04 10:00:28;;;;;;;16.40;10.35;;;;;;;;;;5033249;28;20033;-61
2022/04/04 10:02:57;;;;;;;15.73;10.40;;;;;;;;;;5033230;28;20026;-61
2022/04/04 10:05:27;;;;;;;14.68;9.70;;;;;;;;;;5033431;28;20099;-59
2022/04/04 10:07:56;;;;;;;17.38;10.48;;;;;;;;;;5033475;28;20076;-59
2022/04/04 10:10:26;;;;;;;14.02;9.55;;;;;;;;;;5033362;28;20021;-61
2022/04/04 10:12:53;;;;;;;12.90;10.23;;;;;;;;;;5033595;28;20111;-60
2022/04/04 10:15:20;;;;;;;14.40;9.68;;;;;;;;;;5033187;28;20104;-60
2022/04/04 10:17:46;;;;;;;18.20;10.77;;;;;;;;;;5033064;28;20041;-61
2022/04/04 10:20:13;;;;;;;15.98;10.45;;;;;;;;;;5033732;28;20029;-61
2022/04/04 10:22:39;;;;;;;24.67;10.48;;;;;;;;;;5033392;28;20025;-61
2022/04/04 10:25:07;;;;;;;15.52;10.93;;;;;;;;;;5034651;28;20040;-61
2022/04/04 10:27:37;;;;;;;20.05;11.05;;;;;;;;;;5037291;28;20072;-63
2022/04/04 10:30:04;;;;;;;23.13;10.82;;;;;;;;;;5037344;28;20028;-60
2022/04/04 10:32:32;;;;;;;15.85;10.75;;;;;;;;;;5036694;28;20061;-60
2022/04/04 10:34:58;;;;;;;14.75;10.13;;;;;;;;;;5037398;28;20028;-61
2022/04/04 10:37:30;;;;;;;17.48;10.32;;;;;;;;;;5037160;28;20060;-62
2022/04/04 10:39:56;;;;;;;15.93;10.00;;;;;;;;;;5037474;28;20386;-61
2022/04/04 10:42:24;;;;;;;13.80;9.88;;;;;;;;;;5037361;28;20032;-61
2022/04/04 10:44:56;;;;;;;15.43;9.77;;;;;;;;;;5036641;28;20371;-61
2022/04/04 10:47:23;;;;;;;15.55;9.15;;;;;;;;;;5037594;28;20105;-61
2022/04/04 10:49:50;;;;;;;13.90;9.63;;;;;;;;;;5036699;28;20025;-62
2022/04/04 10:52:19;;;;;;;15.25;8.57;;;;;;;;;;5036732;28;20481;-60
2022/04/04 10:54:46;;;;;;;13.95;9.48;;;;;;;;;;5036853;28;20407;-61
2022/04/04 10:57:19;;;;;;;12.18;8.35;;;;;;;;;;5036755;28;20056;-62
2022/04/04 10:59:46;;;;;;;13.65;8.18;;;;;;;;;;5036516;28;20029;-62
2022/04/04 11:02:14;;;;;;;12.10;6.97;;;;;;;;;;5037604;28;20025;-60
2022/04/04 11:07:41;;;;;;;9.60;7.93;;;;;;;;;;5036134;28;20041;-58
2022/04/04 11:10:09;;;;;;;12.23;7.22;;;;;;;;;;5036548;28;20033;-62
2022/04/04 11:12:54;;;;;;;12.35;6.28;;;;;;;;;;5036170;28;20379;-61
2022/04/04 11:15:41;;;;;;;9.25;6.03;;;;;;;;;;5036671;28;20467;-62
2022/04/04 11:18:07;;;;;;;14.55;6.75;;;;;;;;;;5036438;28;20032;-61
2022/04/04 11:20:33;;;;;;;10.90;5.95;;;;;;;;;;5035804;28;20112;-61
2022/04/04 11:23:11;;;;;;;10.68;5.40;;;;;;;;;;5036581;28;20018;-60
2022/04/04 11:25:38;;;;;;;11.82;6.18;;;;;;;;;;5036426;28;20021;-63
2022/04/04 11:28:05;;;;;;;10.27;6.65;;;;;;;;;;5035571;28;20033;-61
2022/04/04 11:30:32;;;;;;;10.38;6.07;;;;;;;;;;5036417;28;20029;-62
2022/04/04 11:32:59;;;;;;;11.05;7.05;;;;;;;;;;5035871;28;20464;-62
2022/04/04 11:35:27;;;;;;;11.80;7.50;;;;;;;;;;5035442;28;20052;-62
2022/04/04 11:37:59;;;;;;;10.10;6.53;;;;;;;;;;5034847;28;20025;-63
2022/04/04 11:40:33;;;;;;;11.45;6.25;;;;;;;;;;5036306;28;20034;-61
2022/04/04 11:43:02;;;;;;;11.02;5.90;;;;;;;;;;5035984;28;20022;-61
2022/04/04 11:45:30;;;;;;;9.15;5.93;;;;;;;;;;5035882;28;20374;-62
2022/04/04 11:47:56;;;;;;;11.52;5.68;;;;;;;;;;5035347;28;20511;-62
2022/04/04 11:50:25;;;;;;;7.03;5.03;;;;;;;;;;5035834;28;20029;-62
2022/04/04 11:52:55;;;;;;;8.30;5.75;;;;;;;;;;5035779;28;20540;-63
2022/04/04 11:55:25;;;;;;;7.82;5.60;;;;;;;;;;5035392;28;20120;-62
2022/04/04 11:57:57;;;;;;;7.57;5.53;;;;;;;;;;5035651;28;20116;-61
2022/04/04 12:00:24;;;;;;;11.45;5.68;;;;;;;;;;5035724;28;20029;-62
2022/04/04 12:02:50;;;;;;;9.80;6.18;;;;;;;;;;5035026;28;20433;-60
2022/04/04 12:05:21;;;;;;;9.68;6.60;;;;;;;;;;5035309;28;20026;-62
2022/04/04 12:07:49;;;;;;;10.35;6.38;;;;;;;;;;5036154;28;20358;-60
2022/04/04 12:10:24;;;;;;;9.85;5.60;;;;;;;;;;5035001;28;20471;-61
2022/04/04 12:13:00;;;;;;;8.60;5.93;;;;;;;;;;5035246;28;20156;-61
2022/04/04 12:15:27;;;;;;;11.75;7.40;;;;;;;;;;5034823;28;20372;-61
2022/04/04 12:17:53;;;;;;;11.18;7.30;;;;;;;;;;5040221;28;20377;-61
2022/04/04 12:20:19;;;;;;;14.82;6.90;;;;;;;;;;5054950;28;20024;-63
2022/04/04 12:25:30;;;;;;;11.20;6.60;;;;;;;;;;5054768;28;20422;-56
2022/04/04 12:27:57;;;;;;;15.38;7.15;;;;;;;;;;5054884;28;20021;-56
2022/04/04 12:30:35;;;;;;;12.65;6.10;;;;;;;;;;5054513;28;20377;-54
2022/04/04 12:33:11;;;;;;;13.70;7.25;;;;;;;;;;5054910;28;20045;-55
2022/04/04 12:35:41;;;;;;;10.20;6.63;;;;;;;;;;5054341;28;20025;-60
2022/04/04 12:38:08;;;;;;;10.83;7.20;;;;;;;;;;5054239;28;20543;-54
2022/04/04 12:40:34;;;;;;;10.43;6.93;;;;;;;;;;5053029;28;20070;-54
2022/04/04 12:43:11;;;;;;;10.95;7.28;;;;;;;;;;5054553;28;20104;-57
2022/04/04 12:45:47;;;;;;;10.15;7.20;;;;;;;;;;5054189;28;20493;-61
2022/04/04 12:48:13;;;;;;;10.40;6.03;;;;;;;;;;5054685;28;20462;-60
2022/04/04 12:50:47;;;;;;;9.57;7.47;;;;;;;;;;5053244;28;20122;-63
2022/04/04 12:53:14;;;;;;;9.98;7.50;;;;;;;;;;5053277;28;20096;-59
2022/04/04 12:55:43;;;;;;;13.45;6.97;;;;;;;;;;5054405;28;20033;-60
2022/04/04 12:58:17;;;;;;;9.98;6.88;;;;;;;;;;5054138;28;20021;-62
2022/04/04 13:00:43;;;;;;;14.52;8.40;;;;;;;;;;5054444;28;20025;-60
2022/04/04 13:03:24;;;;;;;10.30;7.82;;;;;;;;;;5054332;28;20551;-60
2022/04/04 13:05:55;;;;;;;11.55;8.27;;;;;;;;;;5053208;28;20033;-60
2022/04/04 13:08:25;;;;;;;9.18;7.35;;;;;;;;;;5054020;28;20069;-60
2022/04/04 13:11:05;;;;;;;11.52;7.22;;;;;;;;;;5054156;28;20111;-63
2022/04/04 13:13:31;;;;;;;12.48;7.50;;;;;;;;;;5053715;28;20510;-62
2022/04/04 13:15:58;;;;;;;11.13;7.63;;;;;;;;;;5053935;28;20056;-61
2022/04/04 13:18:24;;;;;;;8.35;6.53;;;;;;;;;;5053846;28;20017;-58
2022/04/04 13:20:51;;;;;;;12.73;6.38;;;;;;;;;;5053430;28;20431;-59
2022/04/04 13:23:18;;;;;;;10.02;7.05;;;;;;;;;;5053757;28;20025;-61
2022/04/04 13:25:45;;;;;;;8.82;6.88;;;;;;;;;;5053597;28;20029;-61
2022/04/04 13:28:11;;;;;;;10.77;6.60;;;;;;;;;;5053644;28;20017;-61
2022/04/04 13:30:40;;;;;;;14.50;7.35;;;;;;;;;;5053892;28;20032;-62
2022/04/04 13:33:07;;;;;;;13.52;6.82;;;;;;;;;;5053468;28;20021;-63
2022/04/04 13:35:37;;;;;;;13.95;7.70;;;;;;;;;;5053547;28;20119;-60
2022/04/04 13:38:03;;;;;;;11.57;7.22;;;;;;;;;;5053683;28;20466;-63
2022/04/04 13:40:30;;;;;;;10.68;8.05;;;;;;;;;;5053394;28;20036;-52
2022/04/04 13:42:56;;;;;;;10.05;7.38;;;;;;;;;;5053723;28;20025;-51
2022/04/04 13:45:23;;;;;;;12.90;8.48;;;;;;;;;;5053793;28;20108;-50
2022/04/04 13:47:49;;;;;;;11.52;8.18;;;;;;;;;;5053327;28;20064;-52
2022/04/04 13:50:16;;;;;;;14.73;11.25;;;;;;;;;;5053629;28;20025;-60
2022/04/04 13:52:43;;;;;;;13.35;8.57;;;;;;;;;;5053902;28;20029;-53
2022/04/04 13:55:09;;;;;;;11.50;9.07;;;;;;;;;;5052225;28;20439;-58
2022/04/04 13:57:36;;;;;;;11.60;8.45;;;;;;;;;;5053234;28;20025;-52
2022/04/04 14:00:04;;;;;;;15.70;8.80;;;;;;;;;;5044938;28;20108;-53
2022/04/04 14:02:30;;;;;;;10.73;8.10;;;;;;;;;;5043827;28;20039;-53
2022/04/04 14:04:56;;;;;;;14.63;9.38;;;;;;;;;;5048116;28;20549;-54
2022/04/04 14:07:23;;;;;;;12.73;8.80;;;;;;;;;;5053711;28;20037;-49
2022/04/04 14:09:49;;;;;;;14.05;9.63;;;;;;;;;;5053080;28;20025;-51
2022/04/04 14:12:17;;;;;;;19.33;9.85;;;;;;;;;;5053364;28;20029;-57
2022/04/04 14:14:43;;;;;;;13.95;9.15;;;;;;;;;;5052841;28;20025;-52
2022/04/04 14:17:09;;;;;;;16.08;10.60;;;;;;;;;;5053525;28;20131;-56
2022/04/04 14:19:36;;;;;;;13.30;9.43;;;;;;;;;;5053013;28;20055;-51
2022/04/04 14:22:02;;;;;;;14.50;10.55;;;;;;;;;;5053115;28;20060;-56
2022/04/04 14:24:28;;;;;;;13.25;9.80;;;;;;;;;;5053320;28;20113;-53
2022/04/04 14:26:55;;;;;;;13.50;10.63;;;;;;;;;;5053236;28;20434;-56
2022/04/04 14:29:21;;;;;;;11.63;9.05;;;;;;;;;;5053132;28;20053;-57
2022/04/04 14:31:48;;;;;;;14.05;10.13;;;;;;;;;;5052976;28;20053;-53
2022/04/04 14:34:14;;;;;;;13.23;9.65;;;;;;;;;;5053539;28;20032;-54